Airfield :
LOGIN :

Register | Disclaimer

   EN    FR    IT 

 










Legend :    VFR   Marginal VFR   IFR   Intensive IFR   Very Intensive IFR
Visi :
Ceiling :
>= 8 km
>= 3000ft
5 to 8 km
1000 to 3000 ft
1500m to 5 km
500 to 1000 ft
800 to 1500m
200 to 500 ft
< 800m
< 200 ft
Symbols :   Thunderstorms  Fog  Heavy snow  Heavy precipitations  Wind > 20 kt
SIGMETs :     Misc.  Thunderstorms  Icing  Turbulence  Mountain Waves  Volcanic Ashes






- Airport Elevation : 32 ft
- IATA code : LKZ


EGUL - RAF Lakenheath

CURRENT METAR :
  • 291055Z AUTO 02006KT 9999 SCT024 14/09 A2963 RMK AO2 SLP037 T01350090 $

EXPIRED METARs :
  • 291045Z AUTO 34008KT 9000 HZ FEW023 14/09 A2962 RMK AO2 SLP034 $
  • 291020Z AUTO 35005KT 4400 HZ CLR 13/10 A2962 RMK AO2 VIS 4000V9000 SLP034 $
  • 290955Z 33004KT 9999 FEW020 FEW050 SCT150 BKN250 12/11 A2961 RMK AO2A SLP030 T01230105 $
  • 290855Z 03003KT 9999 FEW040 SCT120 BKN200 11/10 A2959 RMK AO2A SLP024 T01110098 52021 $

TAF TAF EGUL
Valid from the 29 at 05:00 until the 30 at 11:00 UTC


290500Z 2905/3011 VRB06KT 9999 SCT030 BKN045 QNH2952INS
TEMPO 2906/2911 SCT045
BECMG 2910/2911 35009KT 9999 FEW020 BKN030 QNH2963INS
BECMG 3001/3002 VRB06KT 8000 BR SCT030 QNH2975INS
BECMG 3006/3007 22009KT 9999 NSW BKN015 QNH2969INS TX15/2913Z TN05/3005Z



MET'MAP, your aeronautical weather chart ! - Copyright ORBIFLY December 2007 - Disclaimer

ORBIFLY MET'MAP TEAM :

Programming & Development : Alexandra Zaïnal
Original concept : Baudouin d'Aumeries
Technical & hardware support : Manuel Goepfert
Assistance : Marc-Olivier Méhu




SOURCES & CREDITS :

   NOAA